sensor_id;sensor_type;location;lat;lon;timestamp;P1;durP1;ratioP1;P2;durP2;ratioP2
51594;SDS011;37677;53.254;6.594;2022-08-19T00:00:15;10.82;;;7.45;;
51594;SDS011;37677;53.254;6.594;2022-08-19T00:02:42;11.20;;;8.32;;
51594;SDS011;37677;53.254;6.594;2022-08-19T00:05:09;11.23;;;7.95;;
51594;SDS011;37677;53.254;6.594;2022-08-19T00:07:35;11.73;;;7.78;;
51594;SDS011;37677;53.254;6.594;2022-08-19T00:10:03;11.68;;;9.15;;
51594;SDS011;37677;53.254;6.594;2022-08-19T00:12:30;11.02;;;8.10;;
51594;SDS011;37677;53.254;6.594;2022-08-19T00:14:55;10.30;;;8.30;;
51594;SDS011;37677;53.254;6.594;2022-08-19T00:17:21;9.27;;;7.88;;
51594;SDS011;37677;53.254;6.594;2022-08-19T00:19:47;10.57;;;8.15;;
51594;SDS011;37677;53.254;6.594;2022-08-19T00:22:12;9.70;;;8.68;;
51594;SDS011;37677;53.254;6.594;2022-08-19T00:24:38;9.48;;;8.13;;
51594;SDS011;37677;53.254;6.594;2022-08-19T00:27:06;10.80;;;8.70;;
51594;SDS011;37677;53.254;6.594;2022-08-19T00:29:31;13.48;;;7.88;;
51594;SDS011;37677;53.254;6.594;2022-08-19T00:31:57;10.98;;;8.15;;
51594;SDS011;37677;53.254;6.594;2022-08-19T00:34:24;9.18;;;8.27;;
51594;SDS011;37677;53.254;6.594;2022-08-19T00:36:54;14.43;;;9.60;;
51594;SDS011;37677;53.254;6.594;2022-08-19T00:39:20;10.38;;;9.38;;
51594;SDS011;37677;53.254;6.594;2022-08-19T00:41:46;11.88;;;9.70;;
51594;SDS011;37677;53.254;6.594;2022-08-19T00:44:16;9.85;;;8.13;;
51594;SDS011;37677;53.254;6.594;2022-08-19T00:46:48;12.07;;;8.98;;
51594;SDS011;37677;53.254;6.594;2022-08-19T00:51:48;10.57;;;8.45;;
51594;SDS011;37677;53.254;6.594;2022-08-19T00:54:16;10.63;;;8.85;;
51594;SDS011;37677;53.254;6.594;2022-08-19T00:56:43;10.88;;;9.18;;
51594;SDS011;37677;53.254;6.594;2022-08-19T00:59:10;9.68;;;8.70;;
51594;SDS011;37677;53.254;6.594;2022-08-19T01:01:36;10.07;;;8.88;;
51594;SDS011;37677;53.254;6.594;2022-08-19T01:04:04;13.35;;;8.98;;
51594;SDS011;37677;53.254;6.594;2022-08-19T01:06:30;10.23;;;9.05;;
51594;SDS011;37677;53.254;6.594;2022-08-19T01:08:57;10.98;;;9.85;;
51594;SDS011;37677;53.254;6.594;2022-08-19T01:11:23;11.63;;;9.48;;
51594;SDS011;37677;53.254;6.594;2022-08-19T01:13:50;12.20;;;9.05;;
51594;SDS011;37677;53.254;6.594;2022-08-19T01:16:18;10.30;;;9.25;;
51594;SDS011;37677;53.254;6.594;2022-08-19T01:18:46;12.98;;;9.40;;
51594;SDS011;37677;53.254;6.594;2022-08-19T01:21:15;10.95;;;9.50;;
51594;SDS011;37677;53.254;6.594;2022-08-19T01:23:49;10.75;;;9.65;;
51594;SDS011;37677;53.254;6.594;2022-08-19T01:26:16;11.27;;;9.50;;
51594;SDS011;37677;53.254;6.594;2022-08-19T01:28:45;10.82;;;9.27;;
51594;SDS011;37677;53.254;6.594;2022-08-19T01:31:15;9.55;;;8.55;;
51594;SDS011;37677;53.254;6.594;2022-08-19T01:33:43;11.13;;;9.13;;
51594;SDS011;37677;53.254;6.594;2022-08-19T01:36:12;14.35;;;9.60;;
51594;SDS011;37677;53.254;6.594;2022-08-19T01:38:42;10.60;;;9.45;;
51594;SDS011;37677;53.254;6.594;2022-08-19T01:41:10;12.48;;;8.38;;
51594;SDS011;37677;53.254;6.594;2022-08-19T01:43:36;9.10;;;8.20;;
51594;SDS011;37677;53.254;6.594;2022-08-19T01:46:03;14.27;;;9.27;;
51594;SDS011;37677;53.254;6.594;2022-08-19T01:48:36;10.50;;;9.45;;
51594;SDS011;37677;53.254;6.594;2022-08-19T01:51:04;12.20;;;9.25;;
51594;SDS011;37677;53.254;6.594;2022-08-19T01:53:29;9.85;;;8.88;;
51594;SDS011;37677;53.254;6.594;2022-08-19T01:55:55;10.35;;;8.75;;
51594;SDS011;37677;53.254;6.594;2022-08-19T01:58:26;11.65;;;9.18;;
51594;SDS011;37677;53.254;6.594;2022-08-19T02:00:55;12.15;;;9.60;;
51594;SDS011;37677;53.254;6.594;2022-08-19T02:03:21;10.02;;;9.10;;
51594;SDS011;37677;53.254;6.594;2022-08-19T02:05:47;17.33;;;10.90;;
51594;SDS011;37677;53.254;6.594;2022-08-19T02:08:18;10.27;;;9.20;;
51594;SDS011;37677;53.254;6.594;2022-08-19T02:10:43;11.35;;;10.13;;
51594;SDS011;37677;53.254;6.594;2022-08-19T02:13:10;12.63;;;10.68;;
51594;SDS011;37677;53.254;6.594;2022-08-19T02:15:37;13.00;;;10.98;;
51594;SDS011;37677;53.254;6.594;2022-08-19T02:18:03;16.23;;;13.00;;
51594;SDS011;37677;53.254;6.594;2022-08-19T02:20:28;14.00;;;12.50;;
51594;SDS011;37677;53.254;6.594;2022-08-19T02:22:54;14.95;;;12.18;;
51594;SDS011;37677;53.254;6.594;2022-08-19T02:25:20;16.30;;;12.45;;
51594;SDS011;37677;53.254;6.594;2022-08-19T02:27:46;13.70;;;11.88;;
51594;SDS011;37677;53.254;6.594;2022-08-19T02:30:13;14.10;;;11.98;;
51594;SDS011;37677;53.254;6.594;2022-08-19T02:32:41;15.32;;;11.60;;
51594;SDS011;37677;53.254;6.594;2022-08-19T02:35:07;13.15;;;11.25;;
51594;SDS011;37677;53.254;6.594;2022-08-19T02:37:33;13.18;;;11.30;;
51594;SDS011;37677;53.254;6.594;2022-08-19T02:40:18;17.92;;;12.80;;
51594;SDS011;37677;53.254;6.594;2022-08-19T02:42:44;14.30;;;12.48;;
51594;SDS011;37677;53.254;6.594;2022-08-19T02:45:13;16.38;;;11.77;;
51594;SDS011;37677;53.254;6.594;2022-08-19T02:47:39;15.30;;;12.05;;
51594;SDS011;37677;53.254;6.594;2022-08-19T02:50:05;15.88;;;12.68;;
51594;SDS011;37677;53.254;6.594;2022-08-19T02:52:32;16.38;;;12.73;;
51594;SDS011;37677;53.254;6.594;2022-08-19T02:54:58;14.05;;;12.25;;
51594;SDS011;37677;53.254;6.594;2022-08-19T02:57:25;13.85;;;12.45;;
51594;SDS011;37677;53.254;6.594;2022-08-19T02:59:51;15.35;;;12.38;;
51594;SDS011;37677;53.254;6.594;2022-08-19T03:02:17;14.95;;;13.35;;
51594;SDS011;37677;53.254;6.594;2022-08-19T03:04:43;14.38;;;12.75;;
51594;SDS011;37677;53.254;6.594;2022-08-19T03:07:09;14.63;;;12.55;;
51594;SDS011;37677;53.254;6.594;2022-08-19T03:09:38;15.38;;;13.35;;
51594;SDS011;37677;53.254;6.594;2022-08-19T03:12:04;18.48;;;13.77;;
51594;SDS011;37677;53.254;6.594;2022-08-19T03:14:31;15.77;;;13.55;;
51594;SDS011;37677;53.254;6.594;2022-08-19T03:16:57;19.08;;;13.10;;
51594;SDS011;37677;53.254;6.594;2022-08-19T03:19:23;14.85;;;13.27;;
51594;SDS011;37677;53.254;6.594;2022-08-19T03:21:49;14.75;;;13.07;;
51594;SDS011;37677;53.254;6.594;2022-08-19T03:24:15;15.35;;;13.82;;
51594;SDS011;37677;53.254;6.594;2022-08-19T03:26:43;14.52;;;12.95;;
51594;SDS011;37677;53.254;6.594;2022-08-19T03:29:11;16.55;;;12.95;;
51594;SDS011;37677;53.254;6.594;2022-08-19T03:31:38;14.32;;;12.45;;
51594;SDS011;37677;53.254;6.594;2022-08-19T03:34:04;14.40;;;12.80;;
51594;SDS011;37677;53.254;6.594;2022-08-19T03:36:30;14.75;;;12.32;;
51594;SDS011;37677;53.254;6.594;2022-08-19T03:38:58;15.15;;;12.18;;
51594;SDS011;37677;53.254;6.594;2022-08-19T03:41:26;12.50;;;11.30;;
51594;SDS011;37677;53.254;6.594;2022-08-19T03:43:54;13.18;;;11.55;;
51594;SDS011;37677;53.254;6.594;2022-08-19T03:46:21;13.30;;;11.93;;
51594;SDS011;37677;53.254;6.594;2022-08-19T03:48:50;15.15;;;12.10;;
51594;SDS011;37677;53.254;6.594;2022-08-19T03:51:22;13.80;;;11.90;;
51594;SDS011;37677;53.254;6.594;2022-08-19T03:53:50;13.23;;;11.80;;
51594;SDS011;37677;53.254;6.594;2022-08-19T03:56:16;13.30;;;11.75;;
51594;SDS011;37677;53.254;6.594;2022-08-19T03:58:42;12.13;;;10.50;;
51594;SDS011;37677;53.254;6.594;2022-08-19T04:01:13;12.30;;;10.98;;
51594;SDS011;37677;53.254;6.594;2022-08-19T04:03:41;13.20;;;11.90;;
51594;SDS011;37677;53.254;6.594;2022-08-19T04:06:26;12.55;;;10.93;;
51594;SDS011;37677;53.254;6.594;2022-08-19T04:08:55;15.10;;;11.02;;
51594;SDS011;37677;53.254;6.594;2022-08-19T04:11:28;11.82;;;10.57;;
51594;SDS011;37677;53.254;6.594;2022-08-19T04:14:00;12.35;;;11.15;;
51594;SDS011;37677;53.254;6.594;2022-08-19T04:16:26;12.90;;;11.18;;
51594;SDS011;37677;53.254;6.594;2022-08-19T04:18:56;12.45;;;11.15;;
51594;SDS011;37677;53.254;6.594;2022-08-19T04:21:25;15.10;;;10.98;;
51594;SDS011;37677;53.254;6.594;2022-08-19T04:23:52;12.95;;;10.68;;
51594;SDS011;37677;53.254;6.594;2022-08-19T04:26:23;12.63;;;11.43;;
51594;SDS011;37677;53.254;6.594;2022-08-19T04:28:52;15.30;;;11.27;;
51594;SDS011;37677;53.254;6.594;2022-08-19T04:31:19;12.35;;;10.88;;
51594;SDS011;37677;53.254;6.594;2022-08-19T04:33:46;16.45;;;11.00;;
51594;SDS011;37677;53.254;6.594;2022-08-19T04:36:17;13.15;;;10.95;;
51594;SDS011;37677;53.254;6.594;2022-08-19T04:38:46;15.25;;;11.88;;
51594;SDS011;37677;53.254;6.594;2022-08-19T04:41:15;14.05;;;12.05;;
51594;SDS011;37677;53.254;6.594;2022-08-19T04:44:00;12.38;;;11.23;;
51594;SDS011;37677;53.254;6.594;2022-08-19T04:46:27;14.90;;;11.15;;
51594;SDS011;37677;53.254;6.594;2022-08-19T04:48:54;13.82;;;11.85;;
51594;SDS011;37677;53.254;6.594;2022-08-19T04:51:21;16.88;;;11.38;;
51594;SDS011;37677;53.254;6.594;2022-08-19T04:53:47;13.57;;;10.98;;
51594;SDS011;37677;53.254;6.594;2022-08-19T04:56:14;13.95;;;11.30;;
51594;SDS011;37677;53.254;6.594;2022-08-19T04:58:43;11.73;;;10.48;;
51594;SDS011;37677;53.254;6.594;2022-08-19T05:01:13;15.38;;;11.88;;
51594;SDS011;37677;53.254;6.594;2022-08-19T05:03:42;12.27;;;11.13;;
51594;SDS011;37677;53.254;6.594;2022-08-19T05:06:09;12.80;;;11.50;;
51594;SDS011;37677;53.254;6.594;2022-08-19T05:08:37;12.90;;;11.50;;
51594;SDS011;37677;53.254;6.594;2022-08-19T05:11:09;14.13;;;11.55;;
51594;SDS011;37677;53.254;6.594;2022-08-19T05:13:37;13.15;;;11.82;;
51594;SDS011;37677;53.254;6.594;2022-08-19T05:16:03;13.27;;;11.82;;
51594;SDS011;37677;53.254;6.594;2022-08-19T05:18:29;13.07;;;11.68;;
51594;SDS011;37677;53.254;6.594;2022-08-19T05:21:14;17.40;;;12.23;;
51594;SDS011;37677;53.254;6.594;2022-08-19T05:24:00;12.88;;;11.35;;
51594;SDS011;37677;53.254;6.594;2022-08-19T05:26:27;12.57;;;11.10;;
51594;SDS011;37677;53.254;6.594;2022-08-19T05:28:53;14.05;;;11.60;;
51594;SDS011;37677;53.254;6.594;2022-08-19T05:31:19;16.27;;;10.88;;
51594;SDS011;37677;53.254;6.594;2022-08-19T05:33:45;17.55;;;11.43;;
51594;SDS011;37677;53.254;6.594;2022-08-19T05:36:11;13.75;;;11.27;;
51594;SDS011;37677;53.254;6.594;2022-08-19T05:38:37;15.27;;;11.30;;
51594;SDS011;37677;53.254;6.594;2022-08-19T05:41:09;16.05;;;11.68;;
51594;SDS011;37677;53.254;6.594;2022-08-19T05:43:37;12.38;;;10.95;;
51594;SDS011;37677;53.254;6.594;2022-08-19T05:46:03;13.90;;;12.27;;
51594;SDS011;37677;53.254;6.594;2022-08-19T05:48:31;17.63;;;11.73;;
51594;SDS011;37677;53.254;6.594;2022-08-19T05:50:57;14.48;;;11.82;;
51594;SDS011;37677;53.254;6.594;2022-08-19T05:53:24;13.15;;;11.32;;
51594;SDS011;37677;53.254;6.594;2022-08-19T05:55:50;13.15;;;10.75;;
51594;SDS011;37677;53.254;6.594;2022-08-19T05:58:16;13.90;;;11.82;;
51594;SDS011;37677;53.254;6.594;2022-08-19T06:00:42;14.30;;;10.88;;
51594;SDS011;37677;53.254;6.594;2022-08-19T06:03:09;14.05;;;10.50;;
51594;SDS011;37677;53.254;6.594;2022-08-19T06:05:35;12.70;;;11.20;;
51594;SDS011;37677;53.254;6.594;2022-08-19T06:08:01;12.43;;;9.80;;
51594;SDS011;37677;53.254;6.594;2022-08-19T06:10:26;11.52;;;9.60;;
51594;SDS011;37677;53.254;6.594;2022-08-19T06:12:53;11.98;;;10.32;;
51594;SDS011;37677;53.254;6.594;2022-08-19T06:15:19;13.07;;;10.40;;
51594;SDS011;37677;53.254;6.594;2022-08-19T06:17:44;18.15;;;11.05;;
51594;SDS011;37677;53.254;6.594;2022-08-19T06:20:11;15.32;;;9.00;;
51594;SDS011;37677;53.254;6.594;2022-08-19T06:22:43;12.75;;;9.32;;
51594;SDS011;37677;53.254;6.594;2022-08-19T06:25:11;10.20;;;8.38;;
51594;SDS011;37677;53.254;6.594;2022-08-19T06:27:39;8.57;;;7.72;;
51594;SDS011;37677;53.254;6.594;2022-08-19T06:30:05;8.98;;;8.13;;
51594;SDS011;37677;53.254;6.594;2022-08-19T06:32:32;8.45;;;7.05;;
51594;SDS011;37677;53.254;6.594;2022-08-19T06:34:58;9.48;;;7.72;;
51594;SDS011;37677;53.254;6.594;2022-08-19T06:37:23;10.15;;;7.20;;
51594;SDS011;37677;53.254;6.594;2022-08-19T06:39:49;8.50;;;6.88;;
51594;SDS011;37677;53.254;6.594;2022-08-19T06:42:16;9.13;;;6.38;;
51594;SDS011;37677;53.254;6.594;2022-08-19T06:44:44;9.65;;;7.32;;
51594;SDS011;37677;53.254;6.594;2022-08-19T06:47:13;10.45;;;7.20;;
51594;SDS011;37677;53.254;6.594;2022-08-19T06:49:41;8.10;;;6.63;;
51594;SDS011;37677;53.254;6.594;2022-08-19T06:52:07;10.07;;;7.88;;
51594;SDS011;37677;53.254;6.594;2022-08-19T06:54:36;8.80;;;7.35;;
51594;SDS011;37677;53.254;6.594;2022-08-19T06:57:03;9.23;;;7.00;;
51594;SDS011;37677;53.254;6.594;2022-08-19T06:59:29;7.57;;;6.28;;
51594;SDS011;37677;53.254;6.594;2022-08-19T07:01:58;7.35;;;6.30;;
51594;SDS011;37677;53.254;6.594;2022-08-19T07:04:26;9.30;;;7.00;;
51594;SDS011;37677;53.254;6.594;2022-08-19T07:06:59;8.85;;;6.45;;
51594;SDS011;37677;53.254;6.594;2022-08-19T07:09:34;11.95;;;6.45;;
51594;SDS011;37677;53.254;6.594;2022-08-19T07:12:02;10.07;;;6.47;;
51594;SDS011;37677;53.254;6.594;2022-08-19T07:14:29;8.15;;;7.38;;
51594;SDS011;37677;53.254;6.594;2022-08-19T07:16:55;7.50;;;6.28;;
51594;SDS011;37677;53.254;6.594;2022-08-19T07:19:22;15.82;;;6.80;;
51594;SDS011;37677;53.254;6.594;2022-08-19T07:21:51;7.32;;;6.40;;
51594;SDS011;37677;53.254;6.594;2022-08-19T07:24:21;8.20;;;7.03;;
51594;SDS011;37677;53.254;6.594;2022-08-19T07:26:51;10.30;;;7.40;;
51594;SDS011;37677;53.254;6.594;2022-08-19T07:29:20;10.38;;;7.47;;
51594;SDS011;37677;53.254;6.594;2022-08-19T07:31:48;10.15;;;6.50;;
51594;SDS011;37677;53.254;6.594;2022-08-19T07:34:15;10.60;;;7.97;;
51594;SDS011;37677;53.254;6.594;2022-08-19T07:36:41;7.47;;;6.78;;
51594;SDS011;37677;53.254;6.594;2022-08-19T07:39:12;9.77;;;6.20;;
51594;SDS011;37677;53.254;6.594;2022-08-19T07:41:42;8.65;;;6.65;;
51594;SDS011;37677;53.254;6.594;2022-08-19T07:44:09;8.23;;;4.95;;
51594;SDS011;37677;53.254;6.594;2022-08-19T07:46:38;8.98;;;6.90;;
51594;SDS011;37677;53.254;6.594;2022-08-19T07:49:05;10.50;;;7.88;;
51594;SDS011;37677;53.254;6.594;2022-08-19T07:51:32;8.98;;;7.15;;
51594;SDS011;37677;53.254;6.594;2022-08-19T07:54:00;6.78;;;5.93;;
51594;SDS011;37677;53.254;6.594;2022-08-19T07:56:25;8.43;;;6.38;;
51594;SDS011;37677;53.254;6.594;2022-08-19T07:58:51;10.85;;;6.70;;
51594;SDS011;37677;53.254;6.594;2022-08-19T08:01:19;7.60;;;4.90;;
51594;SDS011;37677;53.254;6.594;2022-08-19T08:03:47;9.68;;;7.43;;
51594;SDS011;37677;53.254;6.594;2022-08-19T08:06:33;7.55;;;6.85;;
51594;SDS011;37677;53.254;6.594;2022-08-19T08:09:19;12.07;;;6.45;;
51594;SDS011;37677;53.254;6.594;2022-08-19T08:11:56;11.35;;;7.57;;
51594;SDS011;37677;53.254;6.594;2022-08-19T08:14:43;9.35;;;7.88;;
51594;SDS011;37677;53.254;6.594;2022-08-19T08:17:12;9.10;;;8.15;;
51594;SDS011;37677;53.254;6.594;2022-08-19T08:19:40;10.43;;;7.90;;
51594;SDS011;37677;53.254;6.594;2022-08-19T08:22:07;9.82;;;7.45;;
51594;SDS011;37677;53.254;6.594;2022-08-19T08:24:54;10.80;;;8.07;;
51594;SDS011;37677;53.254;6.594;2022-08-19T08:27:23;9.45;;;7.88;;
51594;SDS011;37677;53.254;6.594;2022-08-19T08:29:49;7.18;;;6.47;;
51594;SDS011;37677;53.254;6.594;2022-08-19T08:32:15;6.95;;;6.25;;
51594;SDS011;37677;53.254;6.594;2022-08-19T08:34:41;5.78;;;5.00;;
51594;SDS011;37677;53.254;6.594;2022-08-19T08:37:07;6.55;;;5.43;;
51594;SDS011;37677;53.254;6.594;2022-08-19T08:39:33;8.00;;;5.30;;
51594;SDS011;37677;53.254;6.594;2022-08-19T08:44:47;6.13;;;4.07;;
51594;SDS011;37677;53.254;6.594;2022-08-19T08:47:16;8.45;;;4.80;;
51594;SDS011;37677;53.254;6.594;2022-08-19T08:49:53;6.97;;;5.88;;
51594;SDS011;37677;53.254;6.594;2022-08-19T08:52:26;9.07;;;5.50;;
51594;SDS011;37677;53.254;6.594;2022-08-19T08:54:55;10.43;;;5.88;;
51594;SDS011;37677;53.254;6.594;2022-08-19T08:59:56;7.57;;;6.75;;
51594;SDS011;37677;53.254;6.594;2022-08-19T09:02:25;8.65;;;7.75;;
51594;SDS011;37677;53.254;6.594;2022-08-19T09:04:51;8.23;;;7.43;;
51594;SDS011;37677;53.254;6.594;2022-08-19T09:09:53;8.70;;;7.88;;
51594;SDS011;37677;53.254;6.594;2022-08-19T09:12:53;9.45;;;7.80;;
51594;SDS011;37677;53.254;6.594;2022-08-19T09:15:43;10.20;;;8.68;;
51594;SDS011;37677;53.254;6.594;2022-08-19T09:18:13;10.25;;;7.63;;
51594;SDS011;37677;53.254;6.594;2022-08-19T09:20:41;9.52;;;8.18;;
51594;SDS011;37677;53.254;6.594;2022-08-19T09:23:07;8.50;;;6.78;;
51594;SDS011;37677;53.254;6.594;2022-08-19T09:25:33;7.72;;;6.30;;
51594;SDS011;37677;53.254;6.594;2022-08-19T09:28:00;7.72;;;5.60;;
51594;SDS011;37677;53.254;6.594;2022-08-19T09:30:30;10.02;;;7.22;;
51594;SDS011;37677;53.254;6.594;2022-08-19T09:32:57;8.45;;;7.50;;
51594;SDS011;37677;53.254;6.594;2022-08-19T09:35:25;12.82;;;7.55;;
51594;SDS011;37677;53.254;6.594;2022-08-19T09:37:53;7.28;;;6.03;;
51594;SDS011;37677;53.254;6.594;2022-08-19T09:40:20;11.77;;;6.43;;
51594;SDS011;37677;53.254;6.594;2022-08-19T09:42:46;8.77;;;7.03;;
51594;SDS011;37677;53.254;6.594;2022-08-19T09:45:13;7.13;;;6.43;;
51594;SDS011;37677;53.254;6.594;2022-08-19T09:47:40;6.53;;;5.93;;
51594;SDS011;37677;53.254;6.594;2022-08-19T09:50:07;6.10;;;5.50;;
51594;SDS011;37677;53.254;6.594;2022-08-19T09:52:34;7.60;;;6.00;;
51594;SDS011;37677;53.254;6.594;2022-08-19T09:55:02;7.13;;;6.18;;
51594;SDS011;37677;53.254;6.594;2022-08-19T09:57:33;8.25;;;6.47;;
51594;SDS011;37677;53.254;6.594;2022-08-19T09:59:58;6.43;;;5.82;;
51594;SDS011;37677;53.254;6.594;2022-08-19T10:02:24;8.40;;;7.38;;
51594;SDS011;37677;53.254;6.594;2022-08-19T10:04:50;7.72;;;6.47;;
51594;SDS011;37677;53.254;6.594;2022-08-19T10:07:35;8.50;;;7.60;;
51594;SDS011;37677;53.254;6.594;2022-08-19T10:10:04;9.80;;;7.50;;
51594;SDS011;37677;53.254;6.594;2022-08-19T10:12:32;11.95;;;6.57;;
51594;SDS011;37677;53.254;6.594;2022-08-19T10:14:58;9.80;;;8.20;;
51594;SDS011;37677;53.254;6.594;2022-08-19T10:17:24;9.57;;;6.40;;
51594;SDS011;37677;53.254;6.594;2022-08-19T10:19:50;7.63;;;6.30;;
51594;SDS011;37677;53.254;6.594;2022-08-19T10:22:17;7.05;;;6.35;;
51594;SDS011;37677;53.254;6.594;2022-08-19T10:24:43;8.68;;;7.70;;
51594;SDS011;37677;53.254;6.594;2022-08-19T10:27:08;11.25;;;10.18;;
51594;SDS011;37677;53.254;6.594;2022-08-19T10:29:34;8.75;;;7.82;;
51594;SDS011;37677;53.254;6.594;2022-08-19T10:32:00;10.68;;;7.65;;
51594;SDS011;37677;53.254;6.594;2022-08-19T10:34:27;8.55;;;6.20;;
51594;SDS011;37677;53.254;6.594;2022-08-19T10:36:55;9.98;;;6.05;;
51594;SDS011;37677;53.254;6.594;2022-08-19T10:39:21;7.70;;;6.90;;
51594;SDS011;37677;53.254;6.594;2022-08-19T10:41:47;8.68;;;7.82;;
51594;SDS011;37677;53.254;6.594;2022-08-19T10:44:13;8.82;;;7.53;;
51594;SDS011;37677;53.254;6.594;2022-08-19T10:46:41;8.23;;;7.32;;
51594;SDS011;37677;53.254;6.594;2022-08-19T10:49:10;9.82;;;8.15;;
51594;SDS011;37677;53.254;6.594;2022-08-19T10:51:37;10.32;;;8.77;;
51594;SDS011;37677;53.254;6.594;2022-08-19T10:54:25;9.85;;;8.25;;
51594;SDS011;37677;53.254;6.594;2022-08-19T10:57:11;7.45;;;6.55;;
51594;SDS011;37677;53.254;6.594;2022-08-19T10:59:37;10.00;;;7.20;;
51594;SDS011;37677;53.254;6.594;2022-08-19T11:02:05;8.93;;;7.82;;
51594;SDS011;37677;53.254;6.594;2022-08-19T11:04:32;10.73;;;7.25;;
51594;SDS011;37677;53.254;6.594;2022-08-19T11:06:58;9.73;;;8.80;;
51594;SDS011;37677;53.254;6.594;2022-08-19T11:09:25;11.30;;;9.45;;
51594;SDS011;37677;53.254;6.594;2022-08-19T11:11:54;15.98;;;7.82;;
51594;SDS011;37677;53.254;6.594;2022-08-19T11:14:21;9.02;;;8.18;;
51594;SDS011;37677;53.254;6.594;2022-08-19T11:16:49;11.60;;;7.68;;
51594;SDS011;37677;53.254;6.594;2022-08-19T11:19:16;11.77;;;8.35;;
51594;SDS011;37677;53.254;6.594;2022-08-19T11:21:45;9.05;;;8.15;;
51594;SDS011;37677;53.254;6.594;2022-08-19T11:24:16;8.80;;;8.07;;
51594;SDS011;37677;53.254;6.594;2022-08-19T11:26:45;18.55;;;9.52;;
51594;SDS011;37677;53.254;6.594;2022-08-19T11:29:12;11.70;;;10.50;;
51594;SDS011;37677;53.254;6.594;2022-08-19T11:31:40;8.77;;;7.88;;
51594;SDS011;37677;53.254;6.594;2022-08-19T11:34:08;10.30;;;9.30;;
51594;SDS011;37677;53.254;6.594;2022-08-19T11:36:38;11.02;;;9.80;;
51594;SDS011;37677;53.254;6.594;2022-08-19T11:39:06;10.02;;;9.02;;
51594;SDS011;37677;53.254;6.594;2022-08-19T11:41:33;10.73;;;8.05;;
51594;SDS011;37677;53.254;6.594;2022-08-19T11:43:59;8.23;;;7.43;;
51594;SDS011;37677;53.254;6.594;2022-08-19T11:46:25;9.60;;;8.60;;
51594;SDS011;37677;53.254;6.594;2022-08-19T11:48:54;8.27;;;7.45;;
51594;SDS011;37677;53.254;6.594;2022-08-19T11:51:21;9.38;;;8.02;;
51594;SDS011;37677;53.254;6.594;2022-08-19T11:53:49;10.77;;;8.65;;
51594;SDS011;37677;53.254;6.594;2022-08-19T11:56:16;11.35;;;9.65;;
51594;SDS011;37677;53.254;6.594;2022-08-19T11:58:42;11.07;;;10.00;;
51594;SDS011;37677;53.254;6.594;2022-08-19T12:01:08;11.48;;;10.38;;
51594;SDS011;37677;53.254;6.594;2022-08-19T12:03:36;10.73;;;9.45;;
51594;SDS011;37677;53.254;6.594;2022-08-19T12:06:06;14.98;;;10.02;;
51594;SDS011;37677;53.254;6.594;2022-08-19T12:11:04;13.80;;;10.95;;
51594;SDS011;37677;53.254;6.594;2022-08-19T12:13:33;14.23;;;11.45;;
51594;SDS011;37677;53.254;6.594;2022-08-19T12:15:59;12.98;;;9.75;;
51594;SDS011;37677;53.254;6.594;2022-08-19T12:18:25;12.90;;;9.82;;
51594;SDS011;37677;53.254;6.594;2022-08-19T12:20:52;13.13;;;9.55;;
51594;SDS011;37677;53.254;6.594;2022-08-19T12:23:19;10.43;;;8.48;;
51594;SDS011;37677;53.254;6.594;2022-08-19T12:25:46;9.90;;;6.75;;
51594;SDS011;37677;53.254;6.594;2022-08-19T12:28:16;8.63;;;7.72;;
51594;SDS011;37677;53.254;6.594;2022-08-19T12:30:46;10.50;;;8.77;;
51594;SDS011;37677;53.254;6.594;2022-08-19T12:33:13;8.63;;;7.70;;
51594;SDS011;37677;53.254;6.594;2022-08-19T12:35:40;9.25;;;8.35;;
51594;SDS011;37677;53.254;6.594;2022-08-19T12:38:07;10.10;;;8.55;;
51594;SDS011;37677;53.254;6.594;2022-08-19T12:40:33;11.80;;;8.73;;
51594;SDS011;37677;53.254;6.594;2022-08-19T12:42:59;9.43;;;8.23;;
51594;SDS011;37677;53.254;6.594;2022-08-19T12:45:25;9.38;;;7.93;;
51594;SDS011;37677;53.254;6.594;2022-08-19T12:47:50;9.38;;;8.43;;
51594;SDS011;37677;53.254;6.594;2022-08-19T12:50:18;11.35;;;9.25;;
51594;SDS011;37677;53.254;6.594;2022-08-19T12:52:46;9.98;;;8.02;;
51594;SDS011;37677;53.254;6.594;2022-08-19T12:55:13;13.05;;;9.07;;
51594;SDS011;37677;53.254;6.594;2022-08-19T12:57:39;9.48;;;8.43;;
51594;SDS011;37677;53.254;6.594;2022-08-19T13:00:06;10.23;;;6.80;;
51594;SDS011;37677;53.254;6.594;2022-08-19T13:02:40;10.32;;;7.82;;
51594;SDS011;37677;53.254;6.594;2022-08-19T13:05:10;9.50;;;7.85;;
51594;SDS011;37677;53.254;6.594;2022-08-19T13:07:38;9.65;;;7.82;;
51594;SDS011;37677;53.254;6.594;2022-08-19T13:10:06;9.45;;;8.50;;
51594;SDS011;37677;53.254;6.594;2022-08-19T13:12:33;8.82;;;7.53;;
51594;SDS011;37677;53.254;6.594;2022-08-19T13:15:01;10.25;;;8.18;;
51594;SDS011;37677;53.254;6.594;2022-08-19T13:17:26;13.02;;;7.65;;
51594;SDS011;37677;53.254;6.594;2022-08-19T13:19:52;10.32;;;7.82;;
51594;SDS011;37677;53.254;6.594;2022-08-19T13:22:18;14.98;;;10.73;;
51594;SDS011;37677;53.254;6.594;2022-08-19T13:24:44;14.15;;;10.98;;
51594;SDS011;37677;53.254;6.594;2022-08-19T13:27:09;16.40;;;13.88;;
51594;SDS011;37677;53.254;6.594;2022-08-19T13:29:35;23.02;;;14.25;;
51594;SDS011;37677;53.254;6.594;2022-08-19T13:32:19;19.08;;;14.05;;
51594;SDS011;37677;53.254;6.594;2022-08-19T13:35:04;16.77;;;13.77;;
51594;SDS011;37677;53.254;6.594;2022-08-19T13:37:30;16.42;;;14.52;;
51594;SDS011;37677;53.254;6.594;2022-08-19T13:40:13;19.88;;;14.75;;
51594;SDS011;37677;53.254;6.594;2022-08-19T13:42:49;14.57;;;12.13;;
51594;SDS011;37677;53.254;6.594;2022-08-19T13:45:17;18.83;;;14.90;;
51594;SDS011;37677;53.254;6.594;2022-08-19T13:47:48;17.30;;;14.80;;
51594;SDS011;37677;53.254;6.594;2022-08-19T13:50:17;16.67;;;13.60;;
51594;SDS011;37677;53.254;6.594;2022-08-19T13:52:46;17.52;;;13.68;;
51594;SDS011;37677;53.254;6.594;2022-08-19T13:55:12;15.32;;;12.07;;
51594;SDS011;37677;53.254;6.594;2022-08-19T13:57:40;13.10;;;11.60;;
51594;SDS011;37677;53.254;6.594;2022-08-19T14:00:10;15.35;;;12.00;;
51594;SDS011;37677;53.254;6.594;2022-08-19T14:02:42;14.65;;;12.45;;
51594;SDS011;37677;53.254;6.594;2022-08-19T14:05:10;16.40;;;12.35;;
51594;SDS011;37677;53.254;6.594;2022-08-19T14:07:38;17.55;;;11.93;;
51594;SDS011;37677;53.254;6.594;2022-08-19T14:10:05;13.73;;;12.18;;
51594;SDS011;37677;53.254;6.594;2022-08-19T14:12:32;14.30;;;11.55;;
51594;SDS011;37677;53.254;6.594;2022-08-19T14:14:58;12.82;;;11.50;;
51594;SDS011;37677;53.254;6.594;2022-08-19T14:17:24;13.45;;;9.73;;
51594;SDS011;37677;53.254;6.594;2022-08-19T14:19:56;15.52;;;10.40;;
51594;SDS011;37677;53.254;6.594;2022-08-19T14:22:33;11.52;;;10.32;;
51594;SDS011;37677;53.254;6.594;2022-08-19T14:25:03;11.40;;;9.45;;
51594;SDS011;37677;53.254;6.594;2022-08-19T14:27:33;9.05;;;8.13;;
51594;SDS011;37677;53.254;6.594;2022-08-19T14:30:02;9.48;;;8.50;;
51594;SDS011;37677;53.254;6.594;2022-08-19T14:32:33;10.27;;;7.32;;
51594;SDS011;37677;53.254;6.594;2022-08-19T14:34:59;10.38;;;8.55;;
51594;SDS011;37677;53.254;6.594;2022-08-19T14:37:25;11.40;;;9.35;;
51594;SDS011;37677;53.254;6.594;2022-08-19T14:39:51;11.35;;;9.07;;
51594;SDS011;37677;53.254;6.594;2022-08-19T14:42:17;11.02;;;8.98;;
51594;SDS011;37677;53.254;6.594;2022-08-19T14:44:43;13.73;;;10.60;;
51594;SDS011;37677;53.254;6.594;2022-08-19T14:47:09;16.13;;;11.05;;
51594;SDS011;37677;53.254;6.594;2022-08-19T14:49:35;17.25;;;10.93;;
51594;SDS011;37677;53.254;6.594;2022-08-19T14:52:00;16.85;;;11.30;;